createdAt,value
2023-02-05T00:04:52.287Z,100699.28
2023-02-05T00:10:14.125Z,100702.13
2023-02-05T00:15:41.328Z,100698.06
2023-02-05T00:21:03.189Z,100691.53
2023-02-05T00:26:25.442Z,100694.75
2023-02-05T00:31:50.056Z,100674.56
2023-02-05T00:37:12.426Z,100676.78
2023-02-05T00:42:34.566Z,100682.91
2023-02-05T00:47:56.207Z,100684.91
2023-02-05T00:53:19.125Z,100695.69
2023-02-05T00:58:40.925Z,100684.81
2023-02-05T01:04:02.933Z,100674.59
2023-02-05T01:09:24.792Z,100690.72
2023-02-05T01:14:46.389Z,100712.09
2023-02-05T01:20:11.111Z,100705.56
2023-02-05T01:25:33.481Z,100716.31
2023-02-05T01:30:55.550Z,100720.09
2023-02-05T01:36:17.666Z,100727.34
2023-02-05T01:41:42.460Z,100728.72
2023-02-05T01:47:04.634Z,100725.97
2023-02-05T01:52:26.928Z,100725.22
2023-02-05T01:57:50.920Z,100742.69
2023-02-05T02:03:15.384Z,100746.94
2023-02-05T02:08:37.317Z,100750.00
2023-02-05T02:14:01.861Z,100739.44
2023-02-05T02:19:38.757Z,100739.31
2023-02-05T02:25:13.114Z,100729.16
2023-02-05T02:30:40.242Z,100745.97
2023-02-05T02:36:02.326Z,100758.63
2023-02-05T02:41:53.882Z,100758.25
2023-02-05T02:47:23.006Z,100760.31
2023-02-05T02:52:48.188Z,100747.03
2023-02-05T02:58:17.151Z,100752.59
2023-02-05T03:03:45.215Z,100770.94
2023-02-05T03:09:13.882Z,100761.75
2023-02-05T03:14:37.026Z,100751.56
2023-02-05T03:20:38.433Z,100771.81
2023-02-05T03:26:00.669Z,100768.53
2023-02-05T03:32:05.806Z,100783.63
2023-02-05T03:37:45.267Z,100779.38
2023-02-05T03:43:25.574Z,100777.50
2023-02-05T03:49:05.322Z,100784.22
2023-02-05T03:54:47.390Z,100779.50
2023-02-05T04:00:16.426Z,100761.53
2023-02-05T04:05:41.259Z,100760.91
2023-02-05T04:11:05.163Z,100780.91
2023-02-05T04:16:28.462Z,100768.44
2023-02-05T04:21:53.096Z,100781.06
2023-02-05T04:27:16.562Z,100766.56
2023-02-05T04:32:41.184Z,100774.53
2023-02-05T04:38:04.338Z,100780.66
2023-02-05T04:43:27.248Z,100758.91
2023-02-05T04:48:48.908Z,100800.50
2023-02-05T04:54:11.452Z,100777.28
2023-02-05T04:59:33.634Z,100778.25
2023-02-05T05:05:01.162Z,100764.66
2023-02-05T05:10:24.533Z,100768.56
2023-02-05T05:15:46.625Z,100813.50
2023-02-05T05:21:08.825Z,100816.97
2023-02-05T05:26:31.240Z,100826.47
2023-02-05T05:31:54.068Z,100834.75
2023-02-05T05:37:15.944Z,100829.19
2023-02-05T05:42:57.250Z,100836.50
2023-02-05T05:48:21.905Z,100826.16
2023-02-05T05:53:43.864Z,100841.88
2023-02-05T05:59:06.489Z,100842.41
2023-02-05T06:04:29.264Z,100840.59
2023-02-05T06:09:51.302Z,100836.03
2023-02-05T06:15:12.841Z,100848.59
2023-02-05T06:20:35.123Z,100838.22
2023-02-05T06:25:57.724Z,100862.88
2023-02-05T06:31:20.098Z,100853.97
2023-02-05T06:36:42.545Z,100875.00
2023-02-05T06:42:07.334Z,100878.16
2023-02-05T06:47:29.513Z,100889.53
2023-02-05T06:52:52.317Z,100893.59
2023-02-05T06:58:14.187Z,100880.28
2023-02-05T07:03:36.730Z,100881.78
2023-02-05T07:08:59.969Z,100894.69
2023-02-05T07:14:22.052Z,100888.66
2023-02-05T07:19:44.350Z,100885.81
2023-02-05T07:25:06.726Z,100875.56
2023-02-05T07:30:29.012Z,100880.97
2023-02-05T07:35:51.085Z,100884.03
2023-02-05T07:41:15.171Z,100926.63
2023-02-05T07:46:37.473Z,100916.28
2023-02-05T07:51:59.839Z,100888.38
2023-02-05T07:57:25.047Z,100863.00
2023-02-05T08:02:46.993Z,100915.50
2023-02-05T08:08:14.919Z,100925.84
2023-02-05T08:13:37.060Z,100921.53
2023-02-05T08:18:59.126Z,100889.03
2023-02-05T08:24:20.664Z,100905.22
2023-02-05T08:29:43.812Z,100895.50
2023-02-05T08:35:06.456Z,100923.72
2023-02-05T08:40:28.600Z,100930.38
2023-02-05T08:45:50.277Z,100917.50
2023-02-05T08:51:13.965Z,100905.88
2023-02-05T08:56:36.609Z,100919.13
2023-02-05T09:01:58.544Z,100908.97
2023-02-05T09:07:20.217Z,100933.72
2023-02-05T09:12:42.304Z,100936.38
2023-02-05T09:18:04.687Z,100935.19
2023-02-05T09:23:27.212Z,100926.38
2023-02-05T09:28:49.589Z,100913.72
2023-02-05T09:34:11.865Z,100927.81
2023-02-05T09:45:41.737Z,100950.88
2023-02-05T09:51:04.446Z,100929.84
2023-02-05T09:56:29.215Z,100956.63
2023-02-05T10:01:59.105Z,100948.84
2023-02-05T10:08:00.599Z,100937.22
2023-02-05T10:13:35.794Z,100947.81
2023-02-05T10:19:01.154Z,100961.06
2023-02-05T10:24:45.353Z,100955.47
2023-02-05T10:30:26.725Z,100946.44
2023-02-05T10:36:00.929Z,100962.97
2023-02-05T10:41:58.095Z,100947.63
2023-02-05T10:47:36.929Z,100936.38
2023-02-05T10:52:58.969Z,100940.88
2023-02-05T10:58:52.918Z,100956.97
2023-02-05T11:04:18.378Z,100953.53
2023-02-05T11:09:40.989Z,100959.53
2023-02-05T11:15:04.268Z,100952.97
2023-02-05T11:20:33.829Z,100955.81
2023-02-05T11:26:11.426Z,100955.34
2023-02-05T11:31:35.509Z,100962.69
2023-02-05T11:36:59.685Z,100931.59
2023-02-05T11:42:25.620Z,100929.72
2023-02-05T11:47:48.145Z,100976.53
2023-02-05T11:53:17.019Z,100957.28
2023-02-05T11:58:45.257Z,100968.72
2023-02-05T12:04:07.618Z,100980.13
2023-02-05T12:09:29.671Z,100972.75
2023-02-05T12:15:16.152Z,100983.31
2023-02-05T12:20:48.403Z,100952.16
2023-02-05T12:26:31.336Z,100952.28
2023-02-05T12:32:19.408Z,100953.31
2023-02-05T12:37:51.740Z,100983.66
2023-02-05T12:43:32.120Z,100963.78
2023-02-05T12:49:28.570Z,100986.88
2023-02-05T12:55:27.712Z,100991.53
2023-02-05T13:00:58.139Z,100980.91
2023-02-05T13:06:31.367Z,100969.66
2023-02-05T13:12:12.288Z,100989.91
2023-02-05T13:17:44.110Z,100989.28
2023-02-05T13:23:27.529Z,100998.81
2023-02-05T13:29:03.170Z,100965.56
2023-02-05T13:34:26.745Z,100947.94
2023-02-05T13:40:00.770Z,100987.16
2023-02-05T13:45:38.103Z,101012.03
2023-02-05T13:51:22.765Z,101013.50
2023-02-05T13:57:28.306Z,100980.94
2023-02-05T14:02:56.482Z,101004.25
2023-02-05T14:08:27.444Z,100970.22
2023-02-05T14:14:35.508Z,101032.97
2023-02-05T14:20:01.269Z,101029.41
2023-02-05T14:25:48.375Z,101024.91
2023-02-05T14:31:39.717Z,101021.34
2023-02-05T14:37:02.290Z,101044.38
2023-02-05T14:42:30.169Z,101019.19
2023-02-05T14:47:52.832Z,101020.81
2023-02-05T14:53:30.247Z,101035.22
2023-02-05T14:59:01.224Z,101020.13
2023-02-05T15:04:38.403Z,101046.06
2023-02-05T15:10:02.855Z,101054.56
2023-02-05T15:15:31.390Z,101029.97
2023-02-05T15:20:56.808Z,101037.38
2023-02-05T15:26:30.809Z,101011.06
2023-02-05T15:31:59.024Z,101041.75
2023-02-05T15:37:23.210Z,101056.84
2023-02-05T15:42:48.423Z,101038.19
2023-02-05T15:48:10.839Z,101060.13
2023-02-05T15:53:35.357Z,101039.19
2023-02-05T15:59:11.541Z,101005.59
2023-02-05T16:04:36.250Z,101062.34
2023-02-05T16:10:02.480Z,101024.25
2023-02-05T16:15:43.157Z,101067.25
2023-02-05T16:21:08.781Z,101078.75
2023-02-05T16:27:09.693Z,101080.75
2023-02-05T16:32:39.119Z,101054.03
2023-02-05T16:38:09.567Z,101090.13
2023-02-05T16:43:40.686Z,101080.28
2023-02-05T16:49:26.147Z,101099.03
2023-02-05T16:54:51.546Z,101068.72
2023-02-05T17:00:28.106Z,101065.44
2023-02-05T17:05:59.346Z,101085.47
2023-02-05T17:11:40.868Z,101106.25
2023-02-05T17:17:04.996Z,101103.31
2023-02-05T17:22:28.170Z,101113.72
2023-02-05T17:27:50.357Z,101118.19
2023-02-05T17:33:21.534Z,101123.47
2023-02-05T17:38:43.244Z,101122.09
2023-02-05T17:44:06.051Z,101121.63
2023-02-05T17:49:28.030Z,101124.53
2023-02-05T17:54:50.437Z,101138.00
2023-02-05T18:00:20.054Z,101143.50
2023-02-05T18:05:42.001Z,101139.38
2023-02-05T18:11:04.429Z,101150.59
2023-02-05T18:16:28.344Z,101146.50
2023-02-05T18:21:50.332Z,101113.84
2023-02-05T18:27:12.714Z,101134.34
2023-02-05T18:32:34.918Z,101118.41
2023-02-05T18:37:56.991Z,101121.50
2023-02-05T18:43:19.412Z,101118.75
2023-02-05T18:48:42.482Z,101133.06
2023-02-05T18:54:07.197Z,101134.81
2023-02-05T18:59:29.771Z,101117.69
2023-02-05T19:04:56.324Z,101124.91
2023-02-05T19:10:19.629Z,101137.53
2023-02-05T19:15:42.159Z,101155.59
2023-02-05T19:21:06.736Z,101133.69
2023-02-05T19:26:29.845Z,101149.16
2023-02-05T19:31:53.966Z,101144.25
2023-02-05T19:37:15.903Z,101154.44
2023-02-05T19:42:37.987Z,101146.56
2023-02-05T19:48:00.762Z,101160.44
2023-02-05T19:53:23.371Z,101143.56
2023-02-05T19:58:47.777Z,101158.97
2023-02-05T20:04:13.369Z,101149.28
2023-02-05T20:09:36.723Z,101150.94
2023-02-05T20:14:58.988Z,101148.47
2023-02-05T20:20:32.904Z,101163.97
2023-02-05T20:25:58.259Z,101185.19
2023-02-05T20:31:35.784Z,101185.53
2023-02-05T20:37:01.746Z,101188.81
2023-02-05T20:42:24.136Z,101181.59
2023-02-05T20:47:46.204Z,101190.72
2023-02-05T20:53:08.237Z,101179.44
2023-02-05T20:58:30.004Z,101184.22
2023-02-05T21:03:54.996Z,101176.25
2023-02-05T21:09:17.242Z,101180.31
2023-02-05T21:14:39.754Z,101198.38
2023-02-05T21:20:03.952Z,101177.16
2023-02-05T21:25:27.674Z,101170.28
2023-02-05T21:30:51.723Z,101197.25
2023-02-05T21:36:14.392Z,101190.84
2023-02-05T21:41:36.503Z,101172.00
2023-02-05T21:46:58.584Z,101183.72
2023-02-05T21:52:20.685Z,101196.41
2023-02-05T21:57:45.986Z,101190.53
2023-02-05T22:03:07.966Z,101188.88
2023-02-05T22:08:32.029Z,101178.97
2023-02-05T22:13:55.620Z,101161.88
2023-02-05T22:19:24.043Z,101190.22
2023-02-05T22:24:46.992Z,101196.47
2023-02-05T22:30:10.293Z,101198.97
2023-02-05T22:35:35.047Z,101196.91
2023-02-05T22:40:57.170Z,101185.72
2023-02-05T22:46:21.469Z,101195.59
2023-02-05T22:51:43.444Z,101195.00
2023-02-05T22:57:05.244Z,101202.41
2023-02-05T23:02:27.159Z,101206.91
2023-02-05T23:07:53.050Z,101216.78
2023-02-05T23:13:15.106Z,101206.91
2023-02-05T23:18:36.986Z,101220.06
2023-02-05T23:24:13.960Z,101182.44
2023-02-05T23:29:37.805Z,101200.31
2023-02-05T23:35:00.245Z,101228.47
2023-02-05T23:40:25.298Z,101224.34
2023-02-05T23:45:48.047Z,101190.78
2023-02-05T23:51:10.483Z,101220.88
2023-02-05T23:56:33.291Z,101218.72
